sensor_id;sensor_type;location;lat;lon;timestamp;temperature;humidity
23815;DHT22;12088;53.078;8.720;2022-08-25T00:00:44;20.80;99.90
23815;DHT22;12088;53.078;8.720;2022-08-25T00:03:10;20.70;99.90
23815;DHT22;12088;53.078;8.720;2022-08-25T00:05:36;20.60;99.90
23815;DHT22;12088;53.078;8.720;2022-08-25T00:08:03;20.60;99.90
23815;DHT22;12088;53.078;8.720;2022-08-25T00:10:32;20.60;99.90
23815;DHT22;12088;53.078;8.720;2022-08-25T00:12:59;20.50;99.90
23815;DHT22;12088;53.078;8.720;2022-08-25T00:15:25;20.50;99.90
23815;DHT22;12088;53.078;8.720;2022-08-25T00:17:51;20.40;99.90
23815;DHT22;12088;53.078;8.720;2022-08-25T00:20:16;20.40;99.90
23815;DHT22;12088;53.078;8.720;2022-08-25T00:22:42;20.40;99.90
23815;DHT22;12088;53.078;8.720;2022-08-25T00:25:08;20.30;99.90
23815;DHT22;12088;53.078;8.720;2022-08-25T00:27:34;20.30;99.90
23815;DHT22;12088;53.078;8.720;2022-08-25T00:29:59;20.20;99.90
23815;DHT22;12088;53.078;8.720;2022-08-25T00:32:25;20.20;99.90
23815;DHT22;12088;53.078;8.720;2022-08-25T00:34:51;20.20;99.90
23815;DHT22;12088;53.078;8.720;2022-08-25T00:37:17;20.10;99.90
23815;DHT22;12088;53.078;8.720;2022-08-25T00:39:43;20.10;99.90
23815;DHT22;12088;53.078;8.720;2022-08-25T00:42:09;20.00;99.90
23815;DHT22;12088;53.078;8.720;2022-08-25T00:44:35;19.90;99.90
23815;DHT22;12088;53.078;8.720;2022-08-25T00:47:01;19.80;99.90
23815;DHT22;12088;53.078;8.720;2022-08-25T00:49:39;19.80;99.90
23815;DHT22;12088;53.078;8.720;2022-08-25T00:52:28;19.70;99.90
23815;DHT22;12088;53.078;8.720;2022-08-25T00:57:30;19.60;99.90
23815;DHT22;12088;53.078;8.720;2022-08-25T00:59:57;19.60;99.90
23815;DHT22;12088;53.078;8.720;2022-08-25T01:02:23;19.50;99.90
23815;DHT22;12088;53.078;8.720;2022-08-25T01:04:49;19.50;99.90
23815;DHT22;12088;53.078;8.720;2022-08-25T01:07:16;19.40;99.90
23815;DHT22;12088;53.078;8.720;2022-08-25T01:09:43;19.40;99.90
23815;DHT22;12088;53.078;8.720;2022-08-25T01:12:10;19.40;99.90
23815;DHT22;12088;53.078;8.720;2022-08-25T01:14:36;19.30;99.90
23815;DHT22;12088;53.078;8.720;2022-08-25T01:17:02;19.30;99.90
23815;DHT22;12088;53.078;8.720;2022-08-25T01:19:29;19.30;99.90
23815;DHT22;12088;53.078;8.720;2022-08-25T01:21:56;19.30;99.90
23815;DHT22;12088;53.078;8.720;2022-08-25T01:24:34;19.20;99.90
23815;DHT22;12088;53.078;8.720;2022-08-25T01:27:03;19.20;99.90
23815;DHT22;12088;53.078;8.720;2022-08-25T01:29:30;19.20;99.90
23815;DHT22;12088;53.078;8.720;2022-08-25T01:31:58;19.20;99.90
23815;DHT22;12088;53.078;8.720;2022-08-25T01:34:26;19.10;99.90
23815;DHT22;12088;53.078;8.720;2022-08-25T01:36:52;19.10;99.90
23815;DHT22;12088;53.078;8.720;2022-08-25T01:39:18;19.00;99.90
23815;DHT22;12088;53.078;8.720;2022-08-25T01:44:23;18.90;99.90
23815;DHT22;12088;53.078;8.720;2022-08-25T01:46:50;19.00;99.90
23815;DHT22;12088;53.078;8.720;2022-08-25T01:49:16;18.90;99.90
23815;DHT22;12088;53.078;8.720;2022-08-25T01:51:47;18.90;99.90
23815;DHT22;12088;53.078;8.720;2022-08-25T01:54:15;18.80;99.90
23815;DHT22;12088;53.078;8.720;2022-08-25T01:56:41;18.80;99.90
23815;DHT22;12088;53.078;8.720;2022-08-25T01:59:07;18.70;99.90
23815;DHT22;12088;53.078;8.720;2022-08-25T02:01:32;18.70;99.90
23815;DHT22;12088;53.078;8.720;2022-08-25T02:03:58;18.60;99.90
23815;DHT22;12088;53.078;8.720;2022-08-25T02:06:27;18.60;99.90
23815;DHT22;12088;53.078;8.720;2022-08-25T02:09:01;18.60;99.90
23815;DHT22;12088;53.078;8.720;2022-08-25T02:11:28;18.50;99.90
23815;DHT22;12088;53.078;8.720;2022-08-25T02:13:54;18.40;99.90
23815;DHT22;12088;53.078;8.720;2022-08-25T02:16:24;18.40;99.90
23815;DHT22;12088;53.078;8.720;2022-08-25T02:18:50;18.30;99.90
23815;DHT22;12088;53.078;8.720;2022-08-25T02:21:16;18.30;99.90
23815;DHT22;12088;53.078;8.720;2022-08-25T02:23:41;18.30;99.90
23815;DHT22;12088;53.078;8.720;2022-08-25T02:26:08;18.30;99.90
23815;DHT22;12088;53.078;8.720;2022-08-25T02:28:34;18.30;99.90
23815;DHT22;12088;53.078;8.720;2022-08-25T02:31:00;18.30;99.90
23815;DHT22;12088;53.078;8.720;2022-08-25T02:33:25;18.30;99.90
23815;DHT22;12088;53.078;8.720;2022-08-25T02:35:51;18.30;99.90
23815;DHT22;12088;53.078;8.720;2022-08-25T02:38:17;18.30;99.90
23815;DHT22;12088;53.078;8.720;2022-08-25T02:40:42;18.20;99.90
23815;DHT22;12088;53.078;8.720;2022-08-25T02:43:08;18.30;99.90
23815;DHT22;12088;53.078;8.720;2022-08-25T02:45:34;18.30;99.90
23815;DHT22;12088;53.078;8.720;2022-08-25T02:47:59;18.30;99.90
23815;DHT22;12088;53.078;8.720;2022-08-25T02:50:25;18.30;99.90
23815;DHT22;12088;53.078;8.720;2022-08-25T02:52:50;18.30;99.90
23815;DHT22;12088;53.078;8.720;2022-08-25T02:55:18;18.30;99.90
23815;DHT22;12088;53.078;8.720;2022-08-25T02:57:44;18.30;99.90
23815;DHT22;12088;53.078;8.720;2022-08-25T03:00:12;18.30;99.90
23815;DHT22;12088;53.078;8.720;2022-08-25T03:02:38;18.30;99.90
23815;DHT22;12088;53.078;8.720;2022-08-25T03:05:06;18.30;99.90
23815;DHT22;12088;53.078;8.720;2022-08-25T03:07:32;18.30;99.90
23815;DHT22;12088;53.078;8.720;2022-08-25T03:09:58;18.30;99.90
23815;DHT22;12088;53.078;8.720;2022-08-25T03:12:24;18.30;99.90
23815;DHT22;12088;53.078;8.720;2022-08-25T03:14:49;18.30;99.90
23815;DHT22;12088;53.078;8.720;2022-08-25T03:17:15;18.20;99.90
23815;DHT22;12088;53.078;8.720;2022-08-25T03:19:40;18.20;99.90
23815;DHT22;12088;53.078;8.720;2022-08-25T03:22:06;18.20;99.90
23815;DHT22;12088;53.078;8.720;2022-08-25T03:24:31;18.20;99.90
23815;DHT22;12088;53.078;8.720;2022-08-25T03:26:57;18.20;99.90
23815;DHT22;12088;53.078;8.720;2022-08-25T03:29:24;18.10;99.90
23815;DHT22;12088;53.078;8.720;2022-08-25T03:31:52;18.20;99.90
23815;DHT22;12088;53.078;8.720;2022-08-25T03:34:20;18.10;99.90
23815;DHT22;12088;53.078;8.720;2022-08-25T03:36:47;18.20;99.90
23815;DHT22;12088;53.078;8.720;2022-08-25T03:39:13;18.10;99.90
23815;DHT22;12088;53.078;8.720;2022-08-25T03:41:40;18.10;99.90
23815;DHT22;12088;53.078;8.720;2022-08-25T03:44:07;18.10;99.90
23815;DHT22;12088;53.078;8.720;2022-08-25T03:46:38;18.10;99.90
23815;DHT22;12088;53.078;8.720;2022-08-25T03:49:06;18.00;99.90
23815;DHT22;12088;53.078;8.720;2022-08-25T03:51:39;18.10;99.90
23815;DHT22;12088;53.078;8.720;2022-08-25T03:54:06;18.00;99.90
23815;DHT22;12088;53.078;8.720;2022-08-25T03:56:32;18.00;99.90
23815;DHT22;12088;53.078;8.720;2022-08-25T03:58:57;18.00;99.90
23815;DHT22;12088;53.078;8.720;2022-08-25T04:01:24;18.00;99.90
23815;DHT22;12088;53.078;8.720;2022-08-25T04:03:49;18.00;99.90
23815;DHT22;12088;53.078;8.720;2022-08-25T04:06:16;18.00;99.90
23815;DHT22;12088;53.078;8.720;2022-08-25T04:08:42;18.00;99.90
23815;DHT22;12088;53.078;8.720;2022-08-25T04:11:13;18.00;99.90
23815;DHT22;12088;53.078;8.720;2022-08-25T04:13:39;17.90;99.90
23815;DHT22;12088;53.078;8.720;2022-08-25T04:16:15;17.90;99.90
23815;DHT22;12088;53.078;8.720;2022-08-25T04:18:41;18.00;99.90
23815;DHT22;12088;53.078;8.720;2022-08-25T04:21:09;17.90;99.90
23815;DHT22;12088;53.078;8.720;2022-08-25T04:23:39;17.90;99.90
23815;DHT22;12088;53.078;8.720;2022-08-25T04:26:09;17.90;99.90
23815;DHT22;12088;53.078;8.720;2022-08-25T04:28:35;17.90;99.90
23815;DHT22;12088;53.078;8.720;2022-08-25T04:31:04;17.90;99.90
23815;DHT22;12088;53.078;8.720;2022-08-25T04:33:29;17.80;99.90
23815;DHT22;12088;53.078;8.720;2022-08-25T04:35:55;17.80;99.90
23815;DHT22;12088;53.078;8.720;2022-08-25T04:38:20;17.80;99.90
23815;DHT22;12088;53.078;8.720;2022-08-25T04:40:55;17.80;99.90
23815;DHT22;12088;53.078;8.720;2022-08-25T04:43:21;17.80;99.90
23815;DHT22;12088;53.078;8.720;2022-08-25T04:45:46;17.80;99.90
23815;DHT22;12088;53.078;8.720;2022-08-25T04:48:12;17.80;99.90
23815;DHT22;12088;53.078;8.720;2022-08-25T04:50:38;17.80;99.90
23815;DHT22;12088;53.078;8.720;2022-08-25T04:53:04;17.90;99.90
23815;DHT22;12088;53.078;8.720;2022-08-25T04:55:29;17.90;99.90
23815;DHT22;12088;53.078;8.720;2022-08-25T04:57:55;18.00;99.90
23815;DHT22;12088;53.078;8.720;2022-08-25T05:00:20;18.00;99.90
23815;DHT22;12088;53.078;8.720;2022-08-25T05:02:46;18.00;99.90
23815;DHT22;12088;53.078;8.720;2022-08-25T05:05:11;18.10;99.90
23815;DHT22;12088;53.078;8.720;2022-08-25T05:07:37;18.10;99.90
23815;DHT22;12088;53.078;8.720;2022-08-25T05:10:02;18.20;99.90
23815;DHT22;12088;53.078;8.720;2022-08-25T05:12:28;18.20;99.90
23815;DHT22;12088;53.078;8.720;2022-08-25T05:14:54;18.20;99.90
23815;DHT22;12088;53.078;8.720;2022-08-25T05:17:19;18.30;99.90
23815;DHT22;12088;53.078;8.720;2022-08-25T05:19:45;18.30;99.90
23815;DHT22;12088;53.078;8.720;2022-08-25T05:22:10;18.40;99.90
23815;DHT22;12088;53.078;8.720;2022-08-25T05:24:36;18.40;99.90
23815;DHT22;12088;53.078;8.720;2022-08-25T05:27:02;18.50;99.90
23815;DHT22;12088;53.078;8.720;2022-08-25T05:29:28;18.60;99.90
23815;DHT22;12088;53.078;8.720;2022-08-25T05:31:53;18.60;99.90
23815;DHT22;12088;53.078;8.720;2022-08-25T05:34:19;18.70;99.90
23815;DHT22;12088;53.078;8.720;2022-08-25T05:36:46;18.80;99.90
23815;DHT22;12088;53.078;8.720;2022-08-25T05:39:12;18.80;99.90
23815;DHT22;12088;53.078;8.720;2022-08-25T05:41:37;18.80;99.90
23815;DHT22;12088;53.078;8.720;2022-08-25T05:44:03;18.90;99.90
23815;DHT22;12088;53.078;8.720;2022-08-25T05:46:29;19.00;99.90
23815;DHT22;12088;53.078;8.720;2022-08-25T05:48:54;19.00;99.90
23815;DHT22;12088;53.078;8.720;2022-08-25T05:51:20;19.10;99.90
23815;DHT22;12088;53.078;8.720;2022-08-25T05:53:48;19.20;99.90
23815;DHT22;12088;53.078;8.720;2022-08-25T05:56:14;19.30;99.90
23815;DHT22;12088;53.078;8.720;2022-08-25T05:58:41;19.30;99.90
23815;DHT22;12088;53.078;8.720;2022-08-25T06:01:07;19.40;99.90
23815;DHT22;12088;53.078;8.720;2022-08-25T06:04:05;19.50;99.90
23815;DHT22;12088;53.078;8.720;2022-08-25T06:06:31;19.60;99.90
23815;DHT22;12088;53.078;8.720;2022-08-25T06:08:56;19.70;99.90
23815;DHT22;12088;53.078;8.720;2022-08-25T06:11:22;19.80;99.90
23815;DHT22;12088;53.078;8.720;2022-08-25T06:13:48;19.80;99.90
23815;DHT22;12088;53.078;8.720;2022-08-25T06:16:14;20.00;99.90
23815;DHT22;12088;53.078;8.720;2022-08-25T06:18:39;20.10;99.90
23815;DHT22;12088;53.078;8.720;2022-08-25T06:21:09;20.20;99.90
23815;DHT22;12088;53.078;8.720;2022-08-25T06:23:36;20.30;99.90
23815;DHT22;12088;53.078;8.720;2022-08-25T06:26:02;20.40;99.90
23815;DHT22;12088;53.078;8.720;2022-08-25T06:28:27;20.50;99.90
23815;DHT22;12088;53.078;8.720;2022-08-25T06:30:57;20.60;99.90
23815;DHT22;12088;53.078;8.720;2022-08-25T06:33:23;20.70;99.90
23815;DHT22;12088;53.078;8.720;2022-08-25T06:35:53;20.90;99.90
23815;DHT22;12088;53.078;8.720;2022-08-25T06:38:19;21.00;99.90
23815;DHT22;12088;53.078;8.720;2022-08-25T06:40:47;21.10;99.90
23815;DHT22;12088;53.078;8.720;2022-08-25T06:43:12;21.40;99.90
23815;DHT22;12088;53.078;8.720;2022-08-25T06:45:38;21.50;99.90
23815;DHT22;12088;53.078;8.720;2022-08-25T06:48:03;21.70;99.90
23815;DHT22;12088;53.078;8.720;2022-08-25T06:50:29;21.50;99.90
23815;DHT22;12088;53.078;8.720;2022-08-25T06:52:54;21.60;99.90
23815;DHT22;12088;53.078;8.720;2022-08-25T06:55:20;21.60;99.90
23815;DHT22;12088;53.078;8.720;2022-08-25T06:57:45;21.60;99.90
23815;DHT22;12088;53.078;8.720;2022-08-25T07:00:11;21.60;99.90
23815;DHT22;12088;53.078;8.720;2022-08-25T07:02:37;21.80;99.90
23815;DHT22;12088;53.078;8.720;2022-08-25T07:05:04;22.00;99.90
23815;DHT22;12088;53.078;8.720;2022-08-25T07:07:29;22.20;99.90
23815;DHT22;12088;53.078;8.720;2022-08-25T07:09:55;22.30;99.90
23815;DHT22;12088;53.078;8.720;2022-08-25T07:12:21;22.40;99.90
23815;DHT22;12088;53.078;8.720;2022-08-25T07:14:49;22.60;99.90
23815;DHT22;12088;53.078;8.720;2022-08-25T07:17:14;22.70;99.90
23815;DHT22;12088;53.078;8.720;2022-08-25T07:19:40;22.80;99.90
23815;DHT22;12088;53.078;8.720;2022-08-25T07:22:05;23.10;99.90
23815;DHT22;12088;53.078;8.720;2022-08-25T07:24:31;23.20;99.90
23815;DHT22;12088;53.078;8.720;2022-08-25T07:26:56;23.30;99.90
23815;DHT22;12088;53.078;8.720;2022-08-25T07:29:25;23.30;99.90
23815;DHT22;12088;53.078;8.720;2022-08-25T07:31:53;23.40;99.90
23815;DHT22;12088;53.078;8.720;2022-08-25T07:34:18;23.50;99.90
23815;DHT22;12088;53.078;8.720;2022-08-25T07:37:02;23.70;99.90
23815;DHT22;12088;53.078;8.720;2022-08-25T07:39:32;23.70;99.90
23815;DHT22;12088;53.078;8.720;2022-08-25T07:41:58;23.80;99.90
23815;DHT22;12088;53.078;8.720;2022-08-25T07:44:24;23.80;99.90
23815;DHT22;12088;53.078;8.720;2022-08-25T07:46:51;23.80;99.90
23815;DHT22;12088;53.078;8.720;2022-08-25T07:49:21;23.90;99.90
23815;DHT22;12088;53.078;8.720;2022-08-25T07:51:47;23.90;99.90
23815;DHT22;12088;53.078;8.720;2022-08-25T07:54:12;24.10;99.90
23815;DHT22;12088;53.078;8.720;2022-08-25T07:56:38;24.00;99.90
23815;DHT22;12088;53.078;8.720;2022-08-25T07:59:06;24.10;99.90
23815;DHT22;12088;53.078;8.720;2022-08-25T08:01:32;24.20;99.90
23815;DHT22;12088;53.078;8.720;2022-08-25T08:03:57;24.30;99.90
23815;DHT22;12088;53.078;8.720;2022-08-25T08:06:24;24.40;99.90
23815;DHT22;12088;53.078;8.720;2022-08-25T08:08:51;24.50;99.90
23815;DHT22;12088;53.078;8.720;2022-08-25T08:11:25;24.30;99.90
23815;DHT22;12088;53.078;8.720;2022-08-25T08:13:52;24.60;99.90
23815;DHT22;12088;53.078;8.720;2022-08-25T08:16:20;24.90;99.90
23815;DHT22;12088;53.078;8.720;2022-08-25T08:18:45;25.20;99.90
23815;DHT22;12088;53.078;8.720;2022-08-25T08:21:18;25.50;99.90
23815;DHT22;12088;53.078;8.720;2022-08-25T08:23:43;26.00;99.90
23815;DHT22;12088;53.078;8.720;2022-08-25T08:26:10;26.50;99.90
23815;DHT22;12088;53.078;8.720;2022-08-25T08:28:36;27.00;99.90
23815;DHT22;12088;53.078;8.720;2022-08-25T08:31:02;27.30;99.90
23815;DHT22;12088;53.078;8.720;2022-08-25T08:33:27;28.00;99.90
23815;DHT22;12088;53.078;8.720;2022-08-25T08:35:57;28.60;99.90
23815;DHT22;12088;53.078;8.720;2022-08-25T08:38:23;29.40;99.90
23815;DHT22;12088;53.078;8.720;2022-08-25T08:44:06;30.20;99.90
23815;DHT22;12088;53.078;8.720;2022-08-25T08:46:42;31.00;99.90
23815;DHT22;12088;53.078;8.720;2022-08-25T08:49:30;31.20;99.90
23815;DHT22;12088;53.078;8.720;2022-08-25T08:52:00;31.80;99.90
23815;DHT22;12088;53.078;8.720;2022-08-25T08:54:30;32.10;99.90
23815;DHT22;12088;53.078;8.720;2022-08-25T08:57:15;32.10;99.90
23815;DHT22;12088;53.078;8.720;2022-08-25T08:59:50;32.70;99.90
23815;DHT22;12088;53.078;8.720;2022-08-25T09:02:26;32.90;99.90
23815;DHT22;12088;53.078;8.720;2022-08-25T09:04:58;33.20;99.90
23815;DHT22;12088;53.078;8.720;2022-08-25T09:07:29;34.10;99.90
23815;DHT22;12088;53.078;8.720;2022-08-25T09:09:56;34.60;99.90
23815;DHT22;12088;53.078;8.720;2022-08-25T09:12:42;34.70;99.90
23815;DHT22;12088;53.078;8.720;2022-08-25T09:18:09;34.80;99.90
23815;DHT22;12088;53.078;8.720;2022-08-25T09:21:16;35.20;99.90
23815;DHT22;12088;53.078;8.720;2022-08-25T09:26:34;35.40;99.30
23815;DHT22;12088;53.078;8.720;2022-08-25T09:29:12;35.60;99.90
23815;DHT22;12088;53.078;8.720;2022-08-25T09:31:40;35.80;99.60
23815;DHT22;12088;53.078;8.720;2022-08-25T09:34:19;35.90;98.30
23815;DHT22;12088;53.078;8.720;2022-08-25T09:36:46;35.40;98.00
23815;DHT22;12088;53.078;8.720;2022-08-25T09:39:15;35.60;97.20
23815;DHT22;12088;53.078;8.720;2022-08-25T09:44:19;36.20;97.80
23815;DHT22;12088;53.078;8.720;2022-08-25T09:47:11;35.40;95.40
23815;DHT22;12088;53.078;8.720;2022-08-25T09:49:41;35.10;95.60
23815;DHT22;12088;53.078;8.720;2022-08-25T09:52:28;36.70;96.80
23815;DHT22;12088;53.078;8.720;2022-08-25T09:55:27;37.40;93.30
23815;DHT22;12088;53.078;8.720;2022-08-25T09:57:55;36.90;93.40
23815;DHT22;12088;53.078;8.720;2022-08-25T10:05:36;37.80;92.80
23815;DHT22;12088;53.078;8.720;2022-08-25T10:08:11;38.20;94.10
23815;DHT22;12088;53.078;8.720;2022-08-25T10:10:42;37.70;92.00
23815;DHT22;12088;53.078;8.720;2022-08-25T10:13:13;37.90;92.80
23815;DHT22;12088;53.078;8.720;2022-08-25T10:15:39;37.80;89.50
23815;DHT22;12088;53.078;8.720;2022-08-25T10:18:27;38.00;92.30
23815;DHT22;12088;53.078;8.720;2022-08-25T10:21:19;35.90;90.70
23815;DHT22;12088;53.078;8.720;2022-08-25T10:23:48;36.50;92.90
23815;DHT22;12088;53.078;8.720;2022-08-25T10:26:40;36.60;92.30
23815;DHT22;12088;53.078;8.720;2022-08-25T10:29:29;36.80;92.50
23815;DHT22;12088;53.078;8.720;2022-08-25T10:32:03;35.80;92.60
23815;DHT22;12088;53.078;8.720;2022-08-25T10:34:46;35.80;93.30
23815;DHT22;12088;53.078;8.720;2022-08-25T10:37:44;36.80;92.90
23815;DHT22;12088;53.078;8.720;2022-08-25T10:40:16;36.80;91.80
23815;DHT22;12088;53.078;8.720;2022-08-25T10:45:25;37.60;88.30
23815;DHT22;12088;53.078;8.720;2022-08-25T10:54:30;37.10;89.80
23815;DHT22;12088;53.078;8.720;2022-08-25T10:57:10;38.80;88.30
23815;DHT22;12088;53.078;8.720;2022-08-25T11:00:00;36.80;89.10
23815;DHT22;12088;53.078;8.720;2022-08-25T11:05:03;38.30;89.40
23815;DHT22;12088;53.078;8.720;2022-08-25T11:07:36;39.50;85.10
23815;DHT22;12088;53.078;8.720;2022-08-25T11:10:11;38.80;88.80
23815;DHT22;12088;53.078;8.720;2022-08-25T11:12:44;39.40;86.20
23815;DHT22;12088;53.078;8.720;2022-08-25T11:15:26;37.20;86.90
23815;DHT22;12088;53.078;8.720;2022-08-25T11:17:56;37.50;84.60
23815;DHT22;12088;53.078;8.720;2022-08-25T11:20:27;37.70;82.50
23815;DHT22;12088;53.078;8.720;2022-08-25T11:23:21;37.40;83.10
23815;DHT22;12088;53.078;8.720;2022-08-25T11:25:52;38.80;84.10
23815;DHT22;12088;53.078;8.720;2022-08-25T11:28:31;37.10;83.00
23815;DHT22;12088;53.078;8.720;2022-08-25T11:31:00;36.00;83.60
23815;DHT22;12088;53.078;8.720;2022-08-25T11:33:28;35.80;87.90
23815;DHT22;12088;53.078;8.720;2022-08-25T11:41:49;37.90;81.50
23815;DHT22;12088;53.078;8.720;2022-08-25T11:44:37;38.40;82.30
23815;DHT22;12088;53.078;8.720;2022-08-25T11:47:19;38.30;77.50
23815;DHT22;12088;53.078;8.720;2022-08-25T11:49:52;37.50;79.80
23815;DHT22;12088;53.078;8.720;2022-08-25T11:57:43;38.80;78.90
23815;DHT22;12088;53.078;8.720;2022-08-25T12:00:11;37.10;77.80
23815;DHT22;12088;53.078;8.720;2022-08-25T12:02:42;37.90;79.90
23815;DHT22;12088;53.078;8.720;2022-08-25T12:13:46;39.10;78.20
23815;DHT22;12088;53.078;8.720;2022-08-25T12:21:51;37.80;80.60
23815;DHT22;12088;53.078;8.720;2022-08-25T12:24:24;37.30;
23815;DHT22;12088;53.078;8.720;2022-08-25T12:29:46;37.40;79.30
23815;DHT22;12088;53.078;8.720;2022-08-25T12:32:37;38.00;79.00
23815;DHT22;12088;53.078;8.720;2022-08-25T12:38:00;35.60;83.30
23815;DHT22;12088;53.078;8.720;2022-08-25T12:40:59;34.10;87.50
23815;DHT22;12088;53.078;8.720;2022-08-25T12:43:31;35.40;86.40
23815;DHT22;12088;53.078;8.720;2022-08-25T12:48:59;34.90;87.70
23815;DHT22;12088;53.078;8.720;2022-08-25T12:51:28;35.30;86.40
23815;DHT22;12088;53.078;8.720;2022-08-25T12:56:55;34.40;90.80
23815;DHT22;12088;53.078;8.720;2022-08-25T12:59:31;34.70;90.00
23815;DHT22;12088;53.078;8.720;2022-08-25T13:05:14;35.60;87.20
23815;DHT22;12088;53.078;8.720;2022-08-25T13:10:36;37.80;82.40
23815;DHT22;12088;53.078;8.720;2022-08-25T13:13:15;38.40;82.30
23815;DHT22;12088;53.078;8.720;2022-08-25T13:15:46;38.60;82.00
23815;DHT22;12088;53.078;8.720;2022-08-25T13:21:29;37.20;81.90
23815;DHT22;12088;53.078;8.720;2022-08-25T13:23:57;36.80;82.00
23815;DHT22;12088;53.078;8.720;2022-08-25T13:31:31;37.90;80.90
23815;DHT22;12088;53.078;8.720;2022-08-25T13:34:00;37.50;79.90
23815;DHT22;12088;53.078;8.720;2022-08-25T13:36:32;38.60;80.10
23815;DHT22;12088;53.078;8.720;2022-08-25T13:39:20;37.90;80.60
23815;DHT22;12088;53.078;8.720;2022-08-25T13:41:48;37.60;80.80
23815;DHT22;12088;53.078;8.720;2022-08-25T13:44:15;37.80;82.30
23815;DHT22;12088;53.078;8.720;2022-08-25T13:46:42;38.40;80.20
23815;DHT22;12088;53.078;8.720;2022-08-25T13:49:09;39.40;78.80
23815;DHT22;12088;53.078;8.720;2022-08-25T13:51:37;39.80;78.20
23815;DHT22;12088;53.078;8.720;2022-08-25T13:54:08;38.60;79.50
23815;DHT22;12088;53.078;8.720;2022-08-25T13:56:47;37.50;77.60
23815;DHT22;12088;53.078;8.720;2022-08-25T13:59:26;37.00;81.70
23815;DHT22;12088;53.078;8.720;2022-08-25T14:01:54;35.90;84.70
23815;DHT22;12088;53.078;8.720;2022-08-25T14:04:45;35.80;84.80
23815;DHT22;12088;53.078;8.720;2022-08-25T14:09:58;37.60;81.00
23815;DHT22;12088;53.078;8.720;2022-08-25T14:17:45;35.00;87.10
23815;DHT22;12088;53.078;8.720;2022-08-25T14:20:21;35.50;85.40
23815;DHT22;12088;53.078;8.720;2022-08-25T14:22:57;35.40;81.80
23815;DHT22;12088;53.078;8.720;2022-08-25T14:25:24;35.60;82.10
23815;DHT22;12088;53.078;8.720;2022-08-25T14:28:00;35.80;81.10
23815;DHT22;12088;53.078;8.720;2022-08-25T14:30:27;34.50;85.10
23815;DHT22;12088;53.078;8.720;2022-08-25T14:32:53;33.90;85.30
23815;DHT22;12088;53.078;8.720;2022-08-25T14:35:19;33.70;88.60
23815;DHT22;12088;53.078;8.720;2022-08-25T14:37:44;33.90;87.30
23815;DHT22;12088;53.078;8.720;2022-08-25T14:40:11;34.20;88.10
23815;DHT22;12088;53.078;8.720;2022-08-25T14:42:47;34.10;87.90
23815;DHT22;12088;53.078;8.720;2022-08-25T14:45:17;34.80;84.50
23815;DHT22;12088;53.078;8.720;2022-08-25T14:47:43;34.50;86.40
23815;DHT22;12088;53.078;8.720;2022-08-25T14:50:11;34.20;87.40
23815;DHT22;12088;53.078;8.720;2022-08-25T14:52:39;33.70;87.20
23815;DHT22;12088;53.078;8.720;2022-08-25T14:55:06;33.90;87.70
23815;DHT22;12088;53.078;8.720;2022-08-25T14:57:31;33.10;90.10
23815;DHT22;12088;53.078;8.720;2022-08-25T14:59:57;33.00;89.30
23815;DHT22;12088;53.078;8.720;2022-08-25T15:02:23;32.70;89.00
23815;DHT22;12088;53.078;8.720;2022-08-25T15:04:55;32.30;91.00
23815;DHT22;12088;53.078;8.720;2022-08-25T15:07:22;32.00;91.70
23815;DHT22;12088;53.078;8.720;2022-08-25T15:10:07;31.60;91.50
23815;DHT22;12088;53.078;8.720;2022-08-25T15:12:33;31.30;91.90
23815;DHT22;12088;53.078;8.720;2022-08-25T15:14:59;31.00;92.10
23815;DHT22;12088;53.078;8.720;2022-08-25T15:17:26;30.80;91.50
23815;DHT22;12088;53.078;8.720;2022-08-25T15:19:52;30.70;92.50
23815;DHT22;12088;53.078;8.720;2022-08-25T15:22:17;30.50;94.80
23815;DHT22;12088;53.078;8.720;2022-08-25T15:24:42;30.70;93.10
23815;DHT22;12088;53.078;8.720;2022-08-25T15:27:08;30.90;95.20
23815;DHT22;12088;53.078;8.720;2022-08-25T15:29:34;30.70;94.80
23815;DHT22;12088;53.078;8.720;2022-08-25T15:32:01;30.40;94.30
23815;DHT22;12088;53.078;8.720;2022-08-25T15:34:28;30.30;93.50
23815;DHT22;12088;53.078;8.720;2022-08-25T15:36:57;30.10;95.20
23815;DHT22;12088;53.078;8.720;2022-08-25T15:39:23;29.90;96.10
23815;DHT22;12088;53.078;8.720;2022-08-25T15:41:49;29.70;96.80
23815;DHT22;12088;53.078;8.720;2022-08-25T15:44:17;29.60;98.20
23815;DHT22;12088;53.078;8.720;2022-08-25T15:46:43;29.60;98.20
23815;DHT22;12088;53.078;8.720;2022-08-25T15:49:09;29.60;96.70
23815;DHT22;12088;53.078;8.720;2022-08-25T15:51:34;29.70;96.30
23815;DHT22;12088;53.078;8.720;2022-08-25T15:54:00;29.80;95.20
23815;DHT22;12088;53.078;8.720;2022-08-25T15:56:25;29.90;96.10
23815;DHT22;12088;53.078;8.720;2022-08-25T15:58:51;29.70;98.70
23815;DHT22;12088;53.078;8.720;2022-08-25T16:01:20;29.70;97.20
23815;DHT22;12088;53.078;8.720;2022-08-25T16:03:46;29.50;97.80
23815;DHT22;12088;53.078;8.720;2022-08-25T16:06:12;29.30;98.20
23815;DHT22;12088;53.078;8.720;2022-08-25T16:08:38;29.30;98.40
23815;DHT22;12088;53.078;8.720;2022-08-25T16:11:05;29.10;98.50
23815;DHT22;12088;53.078;8.720;2022-08-25T16:13:31;29.00;98.70
23815;DHT22;12088;53.078;8.720;2022-08-25T16:15:57;29.00;99.00
23815;DHT22;12088;53.078;8.720;2022-08-25T16:18:23;28.80;99.00
23815;DHT22;12088;53.078;8.720;2022-08-25T16:20:49;28.80;99.90
23815;DHT22;12088;53.078;8.720;2022-08-25T16:23:17;28.90;99.90
23815;DHT22;12088;53.078;8.720;2022-08-25T16:25:44;28.70;98.70
23815;DHT22;12088;53.078;8.720;2022-08-25T16:28:12;28.70;99.90
23815;DHT22;12088;53.078;8.720;2022-08-25T16:30:38;28.70;99.90
23815;DHT22;12088;53.078;8.720;2022-08-25T16:33:05;28.60;99.90
23815;DHT22;12088;53.078;8.720;2022-08-25T16:35:31;28.50;99.50
23815;DHT22;12088;53.078;8.720;2022-08-25T16:37:57;28.70;99.20
23815;DHT22;12088;53.078;8.720;2022-08-25T16:40:22;28.60;99.90
23815;DHT22;12088;53.078;8.720;2022-08-25T16:42:51;28.50;99.90
23815;DHT22;12088;53.078;8.720;2022-08-25T16:45:16;28.50;99.90
23815;DHT22;12088;53.078;8.720;2022-08-25T16:47:42;28.50;99.90
23815;DHT22;12088;53.078;8.720;2022-08-25T16:50:08;28.50;99.90
23815;DHT22;12088;53.078;8.720;2022-08-25T16:52:34;28.30;99.90
23815;DHT22;12088;53.078;8.720;2022-08-25T16:55:19;28.20;99.90
23815;DHT22;12088;53.078;8.720;2022-08-25T16:57:48;28.10;99.90
23815;DHT22;12088;53.078;8.720;2022-08-25T17:00:19;28.10;99.90
23815;DHT22;12088;53.078;8.720;2022-08-25T17:02:46;28.00;99.90
23815;DHT22;12088;53.078;8.720;2022-08-25T17:05:13;27.90;99.90
23815;DHT22;12088;53.078;8.720;2022-08-25T17:07:38;27.90;99.90
23815;DHT22;12088;53.078;8.720;2022-08-25T17:10:05;27.80;99.90
23815;DHT22;12088;53.078;8.720;2022-08-25T17:12:31;27.80;99.90
23815;DHT22;12088;53.078;8.720;2022-08-25T17:14:57;27.70;99.90